createdAt,value
2022-10-19T00:02:00.083Z,77.80
2022-10-19T00:04:26.222Z,78.01
2022-10-19T00:06:52.354Z,77.74
2022-10-19T00:09:18.452Z,77.74
2022-10-19T00:11:44.562Z,77.61
2022-10-19T00:14:10.659Z,77.44
2022-10-19T00:16:36.756Z,77.34
2022-10-19T00:19:02.866Z,77.48
2022-10-19T00:21:28.956Z,77.67
2022-10-19T00:23:55.051Z,77.56
2022-10-19T00:26:21.186Z,77.50
2022-10-19T00:28:47.369Z,77.13
2022-10-19T00:31:13.512Z,77.56
2022-10-19T00:33:39.635Z,77.41
2022-10-19T00:36:05.734Z,77.86
2022-10-19T00:38:31.821Z,77.74
2022-10-19T00:40:57.953Z,78.01
2022-10-19T00:43:24.052Z,78.15
2022-10-19T00:45:50.163Z,78.11
2022-10-19T00:48:16.277Z,78.15
2022-10-19T00:50:42.367Z,78.42
2022-10-19T00:53:08.459Z,77.99
2022-10-19T00:55:34.613Z,78.33
2022-10-19T00:58:00.713Z,78.54
2022-10-19T01:00:26.820Z,78.16
2022-10-19T01:02:52.946Z,78.46
2022-10-19T01:05:19.045Z,78.31
2022-10-19T01:07:45.140Z,78.22
2022-10-19T01:10:11.251Z,78.24
2022-10-19T01:12:37.355Z,77.73
2022-10-19T01:15:03.464Z,77.72
2022-10-19T01:17:29.607Z,77.89
2022-10-19T01:19:55.712Z,77.60
2022-10-19T01:22:21.844Z,77.61
2022-10-19T01:24:47.982Z,77.49
2022-10-19T01:27:14.105Z,77.78
2022-10-19T01:29:40.193Z,77.57
2022-10-19T01:32:06.327Z,77.37
2022-10-19T01:34:32.422Z,77.42
2022-10-19T01:36:58.527Z,77.62
2022-10-19T01:39:24.656Z,77.19
2022-10-19T01:41:50.773Z,77.35
2022-10-19T01:44:16.873Z,77.50
2022-10-19T01:46:43.004Z,76.96
2022-10-19T01:49:15.293Z,77.18
2022-10-19T01:51:41.511Z,77.50
2022-10-19T01:54:07.644Z,77.75
2022-10-19T01:56:33.728Z,77.27
2022-10-19T01:58:59.833Z,77.19
2022-10-19T02:01:25.941Z,77.22
2022-10-19T02:03:52.025Z,77.53
2022-10-19T02:06:18.122Z,77.24
2022-10-19T02:08:44.216Z,77.40
2022-10-19T02:11:10.309Z,77.31
2022-10-19T02:13:36.428Z,77.32
2022-10-19T02:16:02.605Z,77.25
2022-10-19T02:18:28.688Z,77.51
2022-10-19T02:20:54.782Z,77.93
2022-10-19T02:23:20.891Z,77.40
2022-10-19T02:25:46.982Z,77.50
2022-10-19T02:28:13.110Z,77.72
2022-10-19T02:30:39.263Z,77.04
2022-10-19T02:33:05.362Z,77.43
2022-10-19T02:35:31.473Z,77.49
2022-10-19T02:37:57.576Z,77.38
2022-10-19T02:40:23.662Z,77.42
2022-10-19T02:42:49.748Z,77.50
2022-10-19T02:45:15.858Z,78.06
2022-10-19T02:47:41.958Z,77.97
2022-10-19T02:50:08.074Z,78.80
2022-10-19T02:52:34.339Z,79.18
2022-10-19T02:55:00.437Z,79.15
2022-10-19T02:57:26.525Z,79.92
2022-10-19T02:59:52.653Z,80.18
2022-10-19T03:02:18.736Z,80.51
2022-10-19T03:04:44.893Z,80.55
2022-10-19T03:07:11.028Z,80.59
2022-10-19T03:09:37.132Z,80.47
2022-10-19T03:12:03.321Z,80.38
2022-10-19T03:14:29.447Z,80.22
2022-10-19T03:16:55.535Z,79.84
2022-10-19T03:19:21.624Z,79.70
2022-10-19T03:21:47.740Z,79.52
2022-10-19T03:24:13.833Z,79.57
2022-10-19T03:26:39.922Z,79.84
2022-10-19T03:29:06.030Z,79.97
2022-10-19T03:31:32.118Z,79.63
2022-10-19T03:33:58.220Z,79.91
2022-10-19T03:36:24.332Z,79.68
2022-10-19T03:38:50.415Z,78.99
2022-10-19T03:41:16.518Z,79.75
2022-10-19T03:43:42.620Z,79.61
2022-10-19T03:46:08.738Z,79.37
2022-10-19T03:48:34.842Z,79.32
2022-10-19T03:51:01.306Z,79.58
2022-10-19T03:53:27.399Z,79.48
2022-10-19T03:55:53.486Z,79.83
2022-10-19T03:58:19.598Z,79.26
2022-10-19T04:00:45.789Z,79.61
2022-10-19T04:03:11.900Z,79.12
2022-10-19T04:05:37.997Z,79.41
2022-10-19T04:08:04.093Z,79.50
2022-10-19T04:10:30.183Z,79.49
2022-10-19T04:12:56.297Z,79.54
2022-10-19T04:15:22.398Z,79.35
2022-10-19T04:17:48.736Z,79.56
2022-10-19T04:22:53.424Z,79.99
2022-10-19T04:25:19.534Z,79.75
2022-10-19T04:27:45.632Z,79.42
2022-10-19T04:30:11.720Z,79.60
2022-10-19T04:32:37.840Z,79.60
2022-10-19T04:35:03.924Z,79.49
2022-10-19T04:37:30.024Z,79.65
2022-10-19T04:39:56.126Z,79.90
2022-10-19T04:42:22.225Z,79.37
2022-10-19T04:44:48.320Z,79.47
2022-10-19T04:47:14.461Z,79.64
2022-10-19T04:49:40.591Z,80.21
2022-10-19T04:52:06.688Z,79.75
2022-10-19T04:54:33.359Z,79.89
2022-10-19T04:56:59.456Z,80.23
2022-10-19T04:59:25.561Z,79.77
2022-10-19T05:01:51.972Z,80.21
2022-10-19T05:04:18.056Z,80.11
2022-10-19T05:06:44.149Z,80.09
2022-10-19T05:09:10.276Z,79.75
2022-10-19T05:11:36.393Z,79.80
2022-10-19T05:14:02.486Z,79.84
2022-10-19T05:16:28.581Z,80.38
2022-10-19T05:18:54.675Z,80.10
2022-10-19T05:21:20.773Z,79.70
2022-10-19T05:23:46.888Z,80.16
2022-10-19T05:26:12.979Z,79.74
2022-10-19T05:28:39.214Z,79.80
2022-10-19T05:31:05.354Z,79.74
2022-10-19T05:33:31.444Z,79.70
2022-10-19T05:35:57.675Z,80.01
2022-10-19T05:38:23.829Z,79.90
2022-10-19T05:40:52.963Z,79.66
2022-10-19T05:43:19.850Z,79.88
2022-10-19T05:45:45.962Z,79.74
2022-10-19T05:48:12.071Z,79.77
2022-10-19T05:50:38.178Z,79.78
2022-10-19T05:53:04.308Z,79.93
2022-10-19T05:55:30.408Z,79.71
2022-10-19T05:57:56.537Z,79.80
2022-10-19T06:00:22.653Z,79.86
2022-10-19T06:02:48.750Z,79.85
2022-10-19T06:05:14.851Z,79.61
2022-10-19T06:07:40.969Z,79.90
2022-10-19T06:10:07.059Z,80.06
2022-10-19T06:12:33.161Z,80.14
2022-10-19T06:14:59.282Z,80.08
2022-10-19T06:17:25.393Z,79.67
2022-10-19T06:19:51.494Z,80.11
2022-10-19T06:22:17.607Z,80.17
2022-10-19T06:24:43.695Z,80.21
2022-10-19T06:27:09.856Z,79.77
2022-10-19T06:29:36.002Z,80.12
2022-10-19T06:32:02.100Z,80.13
2022-10-19T06:34:28.285Z,80.20
2022-10-19T06:36:54.514Z,80.17
2022-10-19T06:39:20.639Z,80.40
2022-10-19T06:41:46.733Z,79.57
2022-10-19T06:44:12.840Z,79.76
2022-10-19T06:46:38.939Z,80.06
2022-10-19T06:49:05.039Z,79.80
2022-10-19T06:51:31.163Z,79.71
2022-10-19T06:53:57.635Z,79.29
2022-10-19T06:56:23.853Z,79.27
2022-10-19T06:58:50.290Z,79.17
2022-10-19T07:01:16.492Z,79.02
2022-10-19T07:03:42.603Z,78.99
2022-10-19T07:06:08.789Z,78.82
2022-10-19T07:08:34.889Z,78.91
2022-10-19T07:11:00.986Z,79.09
2022-10-19T07:13:27.102Z,79.02
2022-10-19T07:15:53.220Z,78.92
2022-10-19T07:18:19.330Z,78.57
2022-10-19T07:20:45.450Z,79.03
2022-10-19T07:23:11.562Z,79.17
2022-10-19T07:25:37.651Z,78.90
2022-10-19T07:28:03.758Z,78.92
2022-10-19T07:30:29.878Z,78.76
2022-10-19T07:32:55.974Z,78.83
2022-10-19T07:35:22.103Z,78.92
2022-10-19T07:37:48.190Z,78.98
2022-10-19T07:40:14.295Z,79.14
2022-10-19T07:42:40.436Z,79.16
2022-10-19T07:45:06.550Z,79.57
2022-10-19T07:47:32.934Z,79.67
2022-10-19T07:49:59.309Z,79.17
2022-10-19T07:52:25.450Z,79.19
2022-10-19T07:54:51.574Z,79.33
2022-10-19T07:57:17.689Z,79.64
2022-10-19T07:59:43.790Z,79.67
2022-10-19T08:02:09.929Z,79.61
2022-10-19T08:07:23.201Z,79.89
2022-10-19T08:09:53.826Z,79.94
2022-10-19T08:12:20.483Z,80.16
2022-10-19T08:14:46.594Z,80.21
2022-10-19T08:17:12.717Z,80.13
2022-10-19T08:19:38.843Z,80.17
2022-10-19T08:22:04.935Z,80.31
2022-10-19T08:24:31.046Z,80.20
2022-10-19T08:26:57.143Z,80.56
2022-10-19T08:29:24.593Z,80.67
2022-10-19T08:31:52.725Z,80.58
2022-10-19T08:34:18.812Z,80.50
2022-10-19T08:36:44.918Z,80.79
2022-10-19T08:39:11.044Z,80.72
2022-10-19T08:41:37.183Z,80.55
2022-10-19T08:44:06.243Z,80.53
2022-10-19T08:46:35.297Z,80.58
2022-10-19T08:49:01.389Z,80.45
2022-10-19T08:51:27.547Z,80.51
2022-10-19T08:53:53.729Z,80.45
2022-10-19T08:56:39.038Z,80.46
2022-10-19T08:59:05.937Z,80.32
2022-10-19T09:01:33.926Z,80.38
2022-10-19T09:04:02.978Z,80.26
2022-10-19T09:06:29.090Z,80.11
2022-10-19T09:08:55.224Z,79.93
2022-10-19T09:11:21.345Z,79.88
2022-10-19T09:14:05.991Z,79.71
2022-10-19T09:16:32.435Z,79.58
2022-10-19T09:18:58.560Z,79.41
2022-10-19T09:21:31.008Z,79.29
2022-10-19T09:24:04.052Z,78.98
2022-10-19T09:26:30.147Z,78.79
2022-10-19T09:28:56.259Z,78.62
2022-10-19T09:31:22.382Z,78.48
2022-10-19T09:33:48.480Z,78.25
2022-10-19T09:36:22.548Z,78.34
2022-10-19T09:38:53.754Z,77.93
2022-10-19T09:41:19.852Z,77.87
2022-10-19T09:43:45.977Z,77.94
2022-10-19T09:46:19.795Z,77.75
2022-10-19T09:48:46.301Z,77.71
2022-10-19T09:51:12.409Z,77.47
2022-10-19T09:53:38.525Z,77.45
2022-10-19T09:56:04.793Z,77.34
2022-10-19T09:58:33.107Z,77.25
2022-10-19T10:00:59.670Z,77.18
2022-10-19T10:03:25.774Z,77.11
2022-10-19T10:05:51.869Z,77.09
2022-10-19T10:08:17.978Z,77.00
2022-10-19T10:10:44.065Z,76.84
2022-10-19T10:13:10.208Z,76.56
2022-10-19T10:15:36.349Z,76.52
2022-10-19T10:18:02.438Z,76.39
2022-10-19T10:20:28.544Z,76.10
2022-10-19T10:22:54.656Z,76.21
2022-10-19T10:25:20.852Z,76.23
2022-10-19T10:27:46.973Z,76.04
2022-10-19T10:30:13.073Z,75.96
2022-10-19T10:32:39.177Z,75.85
2022-10-19T10:35:05.263Z,75.72
2022-10-19T10:37:31.661Z,75.64
2022-10-19T10:40:00.521Z,75.58
2022-10-19T10:42:29.869Z,75.52
2022-10-19T10:44:55.972Z,75.48
2022-10-19T10:47:22.070Z,75.52
2022-10-19T10:49:48.157Z,75.55
2022-10-19T10:52:14.294Z,75.30
2022-10-19T10:54:40.398Z,75.06
2022-10-19T10:57:06.920Z,75.00
2022-10-19T10:59:33.210Z,74.96
2022-10-19T11:01:59.376Z,74.89
2022-10-19T11:04:25.516Z,74.75
2022-10-19T11:06:51.693Z,74.45
2022-10-19T11:09:17.775Z,74.52
2022-10-19T11:11:43.872Z,74.39
2022-10-19T11:14:10.032Z,74.22
2022-10-19T11:16:36.128Z,74.17
2022-10-19T11:19:02.270Z,73.57
2022-10-19T11:21:28.689Z,73.48
2022-10-19T11:23:54.794Z,73.34
2022-10-19T11:26:20.881Z,73.58
2022-10-19T11:28:47.002Z,73.31
2022-10-19T11:31:13.105Z,73.24
2022-10-19T11:33:39.240Z,73.23
2022-10-19T11:36:05.379Z,72.64
2022-10-19T11:38:31.549Z,72.38
2022-10-19T11:41:16.974Z,72.23
2022-10-19T11:43:43.766Z,72.07
2022-10-19T11:46:09.871Z,72.04
2022-10-19T11:48:37.695Z,72.05
2022-10-19T11:51:20.587Z,72.00
2022-10-19T11:53:47.625Z,71.82
2022-10-19T11:56:13.732Z,71.71
2022-10-19T11:58:39.840Z,71.72
2022-10-19T12:01:05.939Z,71.68
2022-10-19T12:03:32.050Z,71.24
2022-10-19T12:05:58.128Z,71.26
2022-10-19T12:08:24.261Z,70.97
2022-10-19T12:10:50.534Z,70.87
2022-10-19T12:13:16.654Z,70.71
2022-10-19T12:15:42.743Z,70.63
2022-10-19T12:18:08.838Z,70.58
2022-10-19T12:20:34.937Z,70.76
2022-10-19T12:23:01.039Z,70.35
2022-10-19T12:25:27.143Z,70.58
2022-10-19T12:27:53.237Z,70.45
2022-10-19T12:30:19.328Z,70.18
2022-10-19T12:32:45.441Z,70.01
2022-10-19T12:35:11.572Z,69.66
2022-10-19T12:37:37.937Z,69.22
2022-10-19T12:40:04.085Z,69.26
2022-10-19T12:42:30.168Z,68.94
2022-10-19T12:44:58.630Z,69.07
2022-10-19T12:47:25.075Z,68.95
2022-10-19T12:49:51.208Z,68.53
2022-10-19T12:52:17.301Z,68.76
2022-10-19T12:54:43.413Z,68.39
2022-10-19T12:57:09.501Z,68.34
2022-10-19T12:59:35.669Z,68.10
2022-10-19T13:02:01.785Z,68.03
2022-10-19T13:04:27.922Z,67.75
2022-10-19T13:06:54.017Z,67.80
2022-10-19T13:09:20.173Z,67.58
2022-10-19T13:11:46.276Z,67.56
2022-10-19T13:14:12.379Z,67.26
2022-10-19T13:16:38.489Z,67.13
2022-10-19T13:19:04.730Z,67.39
2022-10-19T13:21:30.870Z,67.08
2022-10-19T13:23:56.979Z,67.34
2022-10-19T13:26:23.095Z,67.04
2022-10-19T13:28:49.210Z,66.64
2022-10-19T13:31:15.828Z,66.62
2022-10-19T13:33:41.932Z,66.63
2022-10-19T13:36:08.058Z,66.27
2022-10-19T13:38:34.180Z,66.03
2022-10-19T13:41:00.281Z,65.94
2022-10-19T13:43:26.420Z,66.12
2022-10-19T13:45:52.569Z,66.29
2022-10-19T13:48:18.663Z,65.70
2022-10-19T13:50:44.762Z,65.70
2022-10-19T13:53:10.897Z,65.38
2022-10-19T13:55:36.988Z,64.95
2022-10-19T13:58:03.073Z,64.89
2022-10-19T14:00:29.250Z,64.58
2022-10-19T14:02:55.346Z,64.63
2022-10-19T14:05:21.440Z,64.31
2022-10-19T14:07:47.545Z,64.14
2022-10-19T14:10:13.642Z,64.19
2022-10-19T14:12:39.736Z,63.96
2022-10-19T14:15:05.846Z,63.95
2022-10-19T14:17:33.886Z,63.55
2022-10-19T14:20:00.556Z,63.68
2022-10-19T14:22:26.672Z,63.71
2022-10-19T14:24:52.790Z,63.63
2022-10-19T14:27:18.889Z,63.58
2022-10-19T14:29:45.007Z,63.53
2022-10-19T14:32:11.216Z,63.54
2022-10-19T14:34:37.316Z,63.55
2022-10-19T14:37:03.455Z,63.54
2022-10-19T14:39:29.571Z,63.31
2022-10-19T14:41:55.680Z,63.58
2022-10-19T14:44:21.807Z,63.51
2022-10-19T14:46:47.898Z,63.59
2022-10-19T14:49:13.975Z,63.18
2022-10-19T14:51:40.081Z,63.53
2022-10-19T14:54:06.189Z,63.45
2022-10-19T14:56:32.293Z,63.48
2022-10-19T14:58:58.411Z,63.33
2022-10-19T15:01:24.516Z,63.26
2022-10-19T15:03:50.668Z,63.45
2022-10-19T15:06:16.772Z,63.46
2022-10-19T15:08:42.958Z,63.29
2022-10-19T15:11:09.162Z,63.40
2022-10-19T15:13:35.264Z,63.31
2022-10-19T15:16:01.388Z,63.21
2022-10-19T15:21:13.583Z,63.23
2022-10-19T15:23:39.678Z,63.21
2022-10-19T15:26:09.683Z,63.38
2022-10-19T15:28:42.523Z,63.09
2022-10-19T15:31:08.609Z,63.26
2022-10-19T15:33:34.742Z,63.41
2022-10-19T15:38:27.935Z,63.10
2022-10-19T15:40:54.098Z,63.25
2022-10-19T15:43:20.198Z,62.85
2022-10-19T15:45:46.289Z,62.88
2022-10-19T15:48:12.372Z,62.83
2022-10-19T15:50:38.526Z,62.54
2022-10-19T15:53:04.630Z,62.47
2022-10-19T15:55:30.756Z,62.72
2022-10-19T15:57:56.878Z,62.60
2022-10-19T16:00:22.980Z,62.93
2022-10-19T16:02:49.103Z,63.01
2022-10-19T16:05:15.210Z,63.38
2022-10-19T16:07:41.292Z,63.62
2022-10-19T16:10:07.421Z,63.90
2022-10-19T16:12:33.540Z,64.47
2022-10-19T16:14:59.689Z,64.52
2022-10-19T16:17:25.786Z,64.89
2022-10-19T16:19:52.311Z,65.38
2022-10-19T16:22:18.403Z,65.32
2022-10-19T16:24:44.516Z,66.01
2022-10-19T16:27:10.640Z,66.25
2022-10-19T16:29:36.720Z,66.45
2022-10-19T16:32:02.825Z,66.73
2022-10-19T16:34:29.021Z,66.55
2022-10-19T16:36:55.159Z,66.79
2022-10-19T16:39:21.261Z,67.04
2022-10-19T16:41:47.897Z,67.15
2022-10-19T16:44:13.983Z,67.29
2022-10-19T16:46:40.083Z,67.46
2022-10-19T16:49:06.243Z,67.73
2022-10-19T16:51:32.584Z,67.88
2022-10-19T16:53:58.661Z,68.18
2022-10-19T16:56:24.768Z,68.10
2022-10-19T16:58:50.866Z,68.59
2022-10-19T17:01:17.003Z,68.56
2022-10-19T17:03:43.164Z,68.86
2022-10-19T17:06:09.291Z,68.89
2022-10-19T17:08:37.230Z,69.11
2022-10-19T17:11:10.486Z,69.47
2022-10-19T17:13:36.578Z,69.50
2022-10-19T17:16:02.680Z,69.74
2022-10-19T17:18:28.793Z,69.57
2022-10-19T17:20:55.627Z,69.75
2022-10-19T17:23:21.816Z,70.02
2022-10-19T17:25:47.927Z,70.10
2022-10-19T17:28:14.022Z,70.18
2022-10-19T17:30:40.119Z,70.32
2022-10-19T17:33:06.255Z,70.40
2022-10-19T17:35:32.358Z,70.44
2022-10-19T17:37:58.450Z,70.56
2022-10-19T17:40:24.603Z,70.65
2022-10-19T17:42:50.686Z,70.69
2022-10-19T17:45:16.801Z,71.26
2022-10-19T17:47:42.929Z,71.08
2022-10-19T17:50:09.034Z,71.12
2022-10-19T17:52:35.154Z,71.11
2022-10-19T17:55:11.574Z,71.20
2022-10-19T17:57:38.493Z,71.21
2022-10-19T18:00:04.599Z,71.46
2022-10-19T18:02:30.800Z,71.54
2022-10-19T18:04:56.937Z,71.55
2022-10-19T18:07:23.050Z,71.49
2022-10-19T18:09:49.140Z,71.56
2022-10-19T18:12:15.243Z,71.69
2022-10-19T18:14:41.360Z,71.75
2022-10-19T18:17:07.466Z,71.66
2022-10-19T18:19:33.569Z,71.71
2022-10-19T18:22:01.132Z,71.77
2022-10-19T18:24:27.272Z,72.01
2022-10-19T18:26:53.417Z,72.00
2022-10-19T18:29:19.543Z,72.03
2022-10-19T18:31:45.632Z,72.08
2022-10-19T18:34:11.734Z,72.08
2022-10-19T18:36:37.847Z,72.06
2022-10-19T18:39:03.932Z,72.13
2022-10-19T18:41:30.033Z,72.05
2022-10-19T18:43:56.154Z,72.19
2022-10-19T18:46:22.246Z,72.26
2022-10-19T18:48:48.342Z,72.24
2022-10-19T18:51:14.900Z,72.17
2022-10-19T18:53:40.986Z,72.29
2022-10-19T18:56:07.091Z,72.37
2022-10-19T18:58:33.197Z,72.25
2022-10-19T19:00:59.325Z,72.41
2022-10-19T19:03:25.417Z,72.59
2022-10-19T19:05:51.546Z,72.37
2022-10-19T19:08:17.672Z,72.52
2022-10-19T19:10:43.763Z,72.51
2022-10-19T19:13:09.874Z,72.61
2022-10-19T19:15:35.972Z,72.62
2022-10-19T19:18:02.081Z,72.55
2022-10-19T19:20:28.170Z,72.66
2022-10-19T19:22:54.273Z,72.78
2022-10-19T19:25:20.368Z,72.99
2022-10-19T19:27:46.480Z,72.85
2022-10-19T19:30:12.573Z,72.94
2022-10-19T19:32:38.682Z,72.84
2022-10-19T19:35:04.832Z,73.09
2022-10-19T19:37:30.936Z,73.18
2022-10-19T19:39:57.043Z,73.21
2022-10-19T19:42:27.666Z,73.22
2022-10-19T19:44:54.002Z,73.33
2022-10-19T19:47:20.113Z,73.32
2022-10-19T19:49:46.245Z,73.49
2022-10-19T19:52:12.377Z,73.35
2022-10-19T19:54:38.470Z,73.64
2022-10-19T19:57:04.576Z,73.66
2022-10-19T19:59:30.680Z,73.77
2022-10-19T20:01:56.850Z,73.79
2022-10-19T20:04:22.970Z,73.83
2022-10-19T20:06:49.082Z,73.93
2022-10-19T20:09:15.189Z,73.71
2022-10-19T20:11:42.701Z,73.99
2022-10-19T20:14:09.112Z,74.14
2022-10-19T20:16:35.210Z,74.00
2022-10-19T20:19:01.335Z,73.86
2022-10-19T20:21:27.429Z,73.96
2022-10-19T20:23:53.527Z,74.24
2022-10-19T20:26:19.648Z,74.18
2022-10-19T20:28:45.757Z,74.27
2022-10-19T20:31:11.851Z,74.34
2022-10-19T20:33:37.959Z,74.32
2022-10-19T20:36:04.081Z,74.48
2022-10-19T20:38:30.178Z,74.56
2022-10-19T20:40:56.287Z,74.79
2022-10-19T20:43:22.372Z,74.58
2022-10-19T20:45:48.452Z,74.89
2022-10-19T20:48:14.590Z,74.76
2022-10-19T20:50:40.696Z,74.91
2022-10-19T20:53:06.790Z,74.92
2022-10-19T20:55:33.378Z,75.03
2022-10-19T20:57:59.457Z,75.01
2022-10-19T21:00:25.531Z,74.96
2022-10-19T21:02:51.649Z,75.24
2022-10-19T21:05:17.752Z,75.29
2022-10-19T21:07:43.843Z,75.25
2022-10-19T21:10:09.949Z,75.40
2022-10-19T21:12:36.400Z,75.45
2022-10-19T21:15:02.788Z,75.34
2022-10-19T21:17:28.901Z,75.32
2022-10-19T21:19:57.275Z,75.40
2022-10-19T21:22:23.588Z,75.45
2022-10-19T21:24:50.322Z,75.48
2022-10-19T21:27:16.409Z,75.41
2022-10-19T21:29:42.487Z,75.44
2022-10-19T21:32:08.610Z,75.54
2022-10-19T21:34:34.700Z,75.30
2022-10-19T21:37:00.784Z,75.37
2022-10-19T21:39:26.898Z,75.32
2022-10-19T21:41:52.989Z,75.44
2022-10-19T21:44:19.067Z,75.43
2022-10-19T21:46:45.186Z,75.42
2022-10-19T21:49:11.286Z,75.50
2022-10-19T21:51:37.365Z,75.35
2022-10-19T21:54:03.553Z,75.25
2022-10-19T21:56:29.724Z,75.27
2022-10-19T21:58:55.823Z,75.28
2022-10-19T22:01:22.086Z,75.17
2022-10-19T22:03:48.228Z,75.05
2022-10-19T22:06:14.337Z,75.03
2022-10-19T22:08:40.695Z,75.11
2022-10-19T22:11:06.797Z,74.99
2022-10-19T22:13:32.901Z,75.11
2022-10-19T22:15:59.022Z,75.01
2022-10-19T22:18:25.103Z,74.99
2022-10-19T22:20:51.194Z,75.12
2022-10-19T22:23:17.314Z,75.03
2022-10-19T22:25:43.422Z,75.14
2022-10-19T22:28:09.506Z,75.25
2022-10-19T22:30:35.617Z,75.15
2022-10-19T22:33:01.708Z,75.17
2022-10-19T22:35:27.803Z,75.17
2022-10-19T22:37:53.896Z,75.29
2022-10-19T22:40:19.988Z,75.27
2022-10-19T22:42:46.078Z,75.43
2022-10-19T22:45:12.210Z,75.34
2022-10-19T22:47:38.320Z,75.47
2022-10-19T22:50:04.404Z,75.43
2022-10-19T22:52:30.509Z,75.53
2022-10-19T22:54:56.609Z,75.67
2022-10-19T22:57:22.693Z,75.71
2022-10-19T22:59:48.797Z,75.70
2022-10-19T23:02:14.885Z,75.56
2022-10-19T23:04:40.970Z,75.87
2022-10-19T23:07:07.173Z,75.73
2022-10-19T23:09:33.332Z,75.81
2022-10-19T23:11:59.429Z,75.91
2022-10-19T23:14:25.542Z,75.85
2022-10-19T23:16:51.638Z,76.01
2022-10-19T23:19:17.731Z,76.02
2022-10-19T23:21:43.842Z,76.01
2022-10-19T23:24:09.926Z,76.15
2022-10-19T23:26:36.015Z,76.08
2022-10-19T23:29:02.127Z,76.03
2022-10-19T23:31:28.210Z,76.26
2022-10-19T23:33:54.298Z,76.18
2022-10-19T23:36:20.414Z,76.27
2022-10-19T23:38:46.501Z,76.28
2022-10-19T23:41:12.597Z,76.32
2022-10-19T23:43:38.707Z,76.27
2022-10-19T23:46:04.808Z,76.40
2022-10-19T23:48:30.901Z,76.59
2022-10-19T23:50:56.999Z,76.69
2022-10-19T23:53:23.109Z,76.73
2022-10-19T23:55:49.212Z,76.80
2022-10-19T23:58:15.336Z,76.88
